Milouin — FT9009 — position and weather

sailwx.info

Track history (hours):
 
Tides and Currents Weather Stations Pressure Air Temp Water Temp Dewpoint Dewpoint Depression Visibility Wind Speed Wind Dir Waves Ship Positions

Milouin

Last reported at 2017-Feb-26 01:28 UTC. Time now 2017-Feb-26 03:30 UTC.
Position N 47°17' W 002°01'.

Length 36 m; draft 2.5 m.

Type: Ship. MMSI: 227003190.

Date/timePositionNaut miles runAvg speedWind from/ knotsBaromVisibWave heightAir tempDewpointWater temp
2017-Feb-26 01:28N 47°17' W 002°01'0 0.0
2017-Feb-26 00:04N 47°17' W 002°01'0 0.0
2017-Feb-25 22:07N 47°17' W 002°01'0 0.0
2017-Feb-25 21:31N 47°17' W 002°01'0 0.0
2017-Feb-25 17:12N 47°17' W 002°01'4 5.8
2017-Feb-25 16:34N 47°18' W 002°07'0 0.3
2017-Feb-25 15:33N 47°18' W 002°07'4 4.1
2017-Feb-25 14:33N 47°18' W 002°01'0 0.2
2017-Feb-25 13:32N 47°17' W 002°01'0 0.0
2017-Feb-25 12:32N 47°17' W 002°01'0 0.0
2017-Feb-25 10:11N 47°17' W 002°01'2 3.7
2017-Feb-25 09:33N 47°18' W 002°04'1 1.3
2017-Feb-25 08:29N 47°18' W 002°06'0 0.1
2017-Feb-25 07:33N 47°18' W 002°06'0 0.1
2017-Feb-25 06:33N 47°18' W 002°06'4 0.7
2017-Feb-25 01:31N 47°17' W 002°01'0 0.0
2017-Feb-25 00:22N 47°17' W 002°01'0 0.0
2017-Feb-24 23:28N 47°17' W 002°01'0 0.0
2017-Feb-24 19:22N 47°17' W 002°01'0 0.0
2017-Feb-24 17:08N 47°17' W 002°01'3 5.0
2017-Feb-24 16:32N 47°18' W 002°05'1 0.3
2017-Feb-24 14:33N 47°18' W 002°06'4 0.9
2017-Feb-24 10:24N 47°17' W 002°01'2 1.8
2017-Feb-24 09:32N 47°18' W 002°03'2 2.0
2017-Feb-24 08:27N 47°18' W 002°06'0 0.0
2017-Feb-24 07:33N 47°18' W 002°06'0 0.0
2017-Feb-24 06:32N 47°18' W 002°06'4 2.8
2017-Feb-24 05:14N 47°17' W 002°01'0 0.0
2017-Feb-24 04:29N 47°17' W 002°01'0 0.0
2017-Feb-24 03:17N 47°17' W 002°01'0 0.0
2017-Feb-24 02:32N 47°17' W 002°01'0 0.0
2017-Feb-24 01:17N 47°17' W 002°01'0 0.0
2017-Feb-24 00:05N 47°17' W 002°01'0 0.0
2017-Feb-23 23:29N 47°17' W 002°01'0 0.0
2017-Feb-23 22:23N 47°17' W 002°01'3 0.5
2017-Feb-23 15:32N 47°18' W 002°06'0 0.1
2017-Feb-23 14:33N 47°18' W 002°06'2 1.5
2017-Feb-23 13:33N 47°18' W 002°04'2 1.5
2017-Feb-23 12:21N 47°17' W 002°01'0 0.0
2017-Feb-23 10:30N 47°17' W 002°01'0 0.0
2017-Feb-23 09:27N 47°17' W 002°01'0 0.0
2017-Feb-23 08:33N 47°17' W 002°01'3 3.2
2017-Feb-23 07:31N 47°18' W 002°06'0 0.2
2017-Feb-23 06:32N 47°18' W 002°06'3 1.1
2017-Feb-23 03:27N 47°17' W 002°01'0 0.0
2017-Feb-23 02:33N 47°17' W 002°01'0 0.0
2017-Feb-23 01:33N 47°17' W 002°01'0 0.0
2017-Feb-23 00:30N 47°17' W 002°01'0 0.0
2017-Feb-22 23:33N 47°17' W 002°01'0 0.0
2017-Feb-22 22:33N 47°17' W 002°01'0 0.0
2017-Feb-22 21:30N 47°17' W 002°01'0 0.0
2017-Feb-22 20:33N 47°17' W 002°01'0 0.0
2017-Feb-22 19:33N 47°17' W 002°01'0 0.0
2017-Feb-22 18:24N 47°17' W 002°01'0 0.0
2017-Feb-22 17:06N 47°17' W 002°01'2 4.2
2017-Feb-22 16:33N 47°18' W 002°04'1 1.0
2017-Feb-22 15:32N 47°18' W 002°06'0 0.1
2017-Feb-22 14:31N 47°18' W 002°06'0 0.1
2017-Feb-22 13:33N 47°18' W 002°06'3 3.2
2017-Feb-22 12:33N 47°17' W 002°01'0 0.2
2017-Feb-22 11:28N 47°17' W 002°01'0 0.0
2017-Feb-22 10:31N 47°17' W 002°01'0 0.0
2017-Feb-22 09:16N 47°17' W 002°01'0 0.0
2017-Feb-22 08:04N 47°17' W 002°01'0 0.0
2017-Feb-22 07:28N 47°17' W 002°01'0 0.0
2017-Feb-22 06:16N 47°17' W 002°01'0 0.0
2017-Feb-22 05:22N 47°17' W 002°01'0 0.0
2017-Feb-22 04:10N 47°17' W 002°01'0 0.0
2017-Feb-22 03:04N 47°17' W 002°01'0 0.0
2017-Feb-22 02:31N 47°17' W 002°01'0 0.0
2017-Feb-22 01:28N 47°17' W 002°01'0 0.0
2017-Feb-22 00:31N 47°17' W 002°01'0 0.0
2017-Feb-21 23:31N 47°17' W 002°01'0 0.0
2017-Feb-21 22:16N 47°17' W 002°01'0 0.0
2017-Feb-21 21:28N 47°17' W 002°01'0 0.0
2017-Feb-21 20:31N 47°17' W 002°01'0 0.0
2017-Feb-21 19:28N 47°17' W 002°01'0 0.0
2017-Feb-21 18:25N 47°17' W 002°01'0 0.0
2017-Feb-21 17:16N 47°17' W 002°01'2 3.3
2017-Feb-21 16:33N 47°18' W 002°04'2 2.2
2017-Feb-21 15:33N 47°18' W 002°08'0 0.1
2017-Feb-21 14:31N 47°18' W 002°08'0 0.0
2017-Feb-21 13:31N 47°18' W 002°08'0 0.1
2017-Feb-21 12:31N 47°18' W 002°08'4 4.0
2017-Feb-21 11:33N 47°18' W 002°02'1 0.8
2017-Feb-21 10:26N 47°17' W 002°01'0 0.0
2017-Feb-21 09:32N 47°17' W 002°01'0 0.0
2017-Feb-21 08:26N 47°17' W 002°01'0 0.0
2017-Feb-21 07:29N 47°17' W 002°01'0 0.0
2017-Feb-21 06:32N 47°17' W 002°01'0 0.0
2017-Feb-21 05:32N 47°17' W 002°01'0 0.0
2017-Feb-21 04:32N 47°17' W 002°01'0 0.0
2017-Feb-21 03:23N 47°17' W 002°01'0 0.0
2017-Feb-21 02:26N 47°17' W 002°01'0 0.0
2017-Feb-21 01:32N 47°17' W 002°01'0 0.0
2017-Feb-21 00:32N 47°17' W 002°01'0 0.0
2017-Feb-20 23:32N 47°17' W 002°01'0 0.0
2017-Feb-20 22:32N 47°17' W 002°01'0 0.0
2017-Feb-20 21:26N 47°17' W 002°01'0 0.0
2017-Feb-20 20:23N 47°17' W 002°01'0 0.0
2017-Feb-20 19:32N 47°17' W 002°01'0 0.0
2017-Feb-20 18:32N 47°17' W 002°01'0 0.0
2017-Feb-20 17:32N 47°17' W 002°01'0 0.0
2017-Feb-20 16:26N 47°17' W 002°01'7 8.2
2017-Feb-20 15:33N 47°15' W 001°51'9 9.4
2017-Feb-20 14:33N 47°12' W 001°38'3 2.8
2017-Feb-20 13:31N 47°12' W 001°34'0 0.1
2017-Feb-20 12:30N 47°12' W 001°34'0 0.0
2017-Feb-20 11:33N 47°12' W 001°34'3 2.5
2017-Feb-20 10:33N 47°12' W 001°38'6 6.1
2017-Feb-20 09:33N 47°13' W 001°47'8 8.1
2017-Feb-20 08:33N 47°17' W 001°57'3 3.0
2017-Feb-20 07:32N 47°17' W 002°01'0 0.0
2017-Feb-20 06:32N 47°17' W 002°01'0 0.0
2017-Feb-20 05:32N 47°17' W 002°01'0 0.0
2017-Feb-20 04:29N 47°17' W 002°01'0 0.0
2017-Feb-20 03:32N 47°17' W 002°01'0 0.0
2017-Feb-20 02:32N 47°17' W 002°01'0 0.0
2017-Feb-20 01:26N 47°17' W 002°01'0 0.0
2017-Feb-20 00:32N 47°17' W 002°01'0 0.0
2017-Feb-19 23:32N 47°17' W 002°01'0 0.0
2017-Feb-19 22:29N 47°17' W 002°01'0 0.0
2017-Feb-19 21:32N 47°17' W 002°01'0 0.0
2017-Feb-19 20:32N 47°17' W 002°01'0 0.0
2017-Feb-19 19:32N 47°17' W 002°01'0 0.0
2017-Feb-19 18:32N 47°17' W 002°01'0 0.0
2017-Feb-19 17:32N 47°17' W 002°01'0 0.0
2017-Feb-19 16:29N 47°17' W 002°01'0 0.3
2017-Feb-19 15:25N 47°18' W 002°01'0 0.3
2017-Feb-19 14:19N 47°18' W 002°02'0 0.3
2017-Feb-19 13:33N 47°18' W 002°01'4 3.6
2017-Feb-19 12:33N 47°18' W 002°07'4 1.8
2017-Feb-19 10:19N 47°17' W 002°12'0 0.0
2017-Feb-19 08:31N 47°16' W 002°12'6 6.2
2017-Feb-19 07:33N 47°18' W 002°03'2 1.7
2017-Feb-19 06:32N 47°17' W 002°01'0 0.0
2017-Feb-19 05:29N 47°17' W 002°01'0 0.0
2017-Feb-19 04:23N 47°17' W 002°01'0 0.0
2017-Feb-19 03:29N 47°17' W 002°01'0 0.0
2017-Feb-19 02:32N 47°17' W 002°01'0 0.0
2017-Feb-19 01:32N 47°17' W 002°01'0 0.0
2017-Feb-19 00:32N 47°17' W 002°01'0 0.0
2017-Feb-18 23:23N 47°17' W 002°01'0 0.0
2017-Feb-18 22:32N 47°17' W 002°01'0 0.0
2017-Feb-18 21:32N 47°17' W 002°01'0 0.0
2017-Feb-18 20:17N 47°17' W 002°01'0 0.0
2017-Feb-18 19:29N 47°17' W 002°01'0 0.0
2017-Feb-18 18:26N 47°17' W 002°01'0 0.0
2017-Feb-18 16:26N 47°17' W 002°01'6 6.9
2017-Feb-18 15:33N 47°17' W 002°10'2 1.8
2017-Feb-18 14:33N 47°16' W 002°12'0 0.1
2017-Feb-18 13:27N 47°16' W 002°12'0 0.1
2017-Feb-18 12:33N 47°16' W 002°12'0 0.0
2017-Feb-18 11:31N 47°16' W 002°12'0 0.1
2017-Feb-18 10:31N 47°16' W 002°12'0 0.0
2017-Feb-18 09:32N 47°16' W 002°12'3 3.2
2017-Feb-18 08:33N 47°18' W 002°08'2 1.9
2017-Feb-18 07:29N 47°18' W 002°05'3 3.2
2017-Feb-18 06:31N 47°17' W 002°01'0 0.0
2017-Feb-18 04:25N 47°17' W 002°01'0 0.0
2017-Feb-18 03:07N 47°17' W 002°01'0 0.0
2017-Feb-18 02:25N 47°17' W 002°01'0 0.0
2017-Feb-18 01:19N 47°17' W 002°01'0 0.0
2017-Feb-18 00:19N 47°17' W 002°01'0 0.0
2017-Feb-17 17:31N 47°17' W 002°01'1 0.7
2017-Feb-17 15:33N 47°18' W 002°03'7 6.1
2017-Feb-17 14:29N 47°16' W 002°12'0 0.0
2017-Feb-17 13:31N 47°16' W 002°12'0 0.2
2017-Feb-17 12:33N 47°16' W 002°12'0 0.1
2017-Feb-17 11:31N 47°16' W 002°12'0 0.1
2017-Feb-17 10:33N 47°16' W 002°12'0 0.1
2017-Feb-17 09:33N 47°16' W 002°12'0 0.1
2017-Feb-17 08:33N 47°16' W 002°12'0 0.0
2017-Feb-17 07:27N 47°16' W 002°12'5 5.3
2017-Feb-17 06:34N 47°18' W 002°06'3 2.9
2017-Feb-17 05:25N 47°17' W 002°01'0 0.0
2017-Feb-17 04:31N 47°17' W 002°01'0 0.0
2017-Feb-17 03:28N 47°17' W 002°01'0 0.0
2017-Feb-17 02:28N 47°17' W 002°01'0 0.0
2017-Feb-17 01:19N 47°17' W 002°01'0 0.0
2017-Feb-17 00:28N 47°17' W 002°01'0 0.0
2017-Feb-16 23:31N 47°17' W 002°01'0 0.0
2017-Feb-16 22:31N 47°17' W 002°01'0 0.0
2017-Feb-16 21:31N 47°17' W 002°01'0 0.0
2017-Feb-16 20:31N 47°17' W 002°01'0 0.0
2017-Feb-16 19:25N 47°17' W 002°01'0 0.0
2017-Feb-16 18:28N 47°17' W 002°01'0 0.0
2017-Feb-16 17:25N 47°17' W 002°01'0 0.0
2017-Feb-16 15:07N 47°17' W 002°01'0 0.4
2017-Feb-16 14:33N 47°17' W 002°01'3 2.3
2017-Feb-16 13:15N 47°18' W 002°06'1 0.7
2017-Feb-16 12:27N 47°18' W 002°06'0 0.2
2017-Feb-16 11:29N 47°18' W 002°07'0 0.0
2017-Feb-16 10:24N 47°18' W 002°07'0 0.0
2017-Feb-16 09:33N 47°18' W 002°07'0 0.1
2017-Feb-16 08:30N 47°18' W 002°07'0 0.2
2017-Feb-16 07:32N 47°18' W 002°07'0 0.4
2017-Feb-16 06:33N 47°18' W 002°06'3 3.4
2017-Feb-16 05:32N 47°17' W 002°01'0 0.0
2017-Feb-16 04:26N 47°17' W 002°01'0 0.0
2017-Feb-16 03:32N 47°17' W 002°01'0 0.0
2017-Feb-16 02:20N 47°17' W 002°01'0 0.0
2017-Feb-16 01:32N 47°17' W 002°01'  
Track history (hours):
 
Tides and Currents Weather Stations Pressure Air Temp Water Temp Dewpoint Dewpoint Depression Visibility Wind Speed Wind Dir Waves Ship Positions

Milouin

Last reported at 2017-Feb-26 01:28 UTC. Time now 2017-Feb-26 03:30 UTC.
Position N 47°17' W 002°01'.

Length 36 m; draft 2.5 m.

Type: Ship. MMSI: 227003190.

Date/timePositionNaut miles runAvg speedWind from/ knotsBaromVisibWave heightAir tempDewpointWater temp
2017-Feb-26 01:28N 47°17' W 002°01'0 0.0
2017-Feb-26 00:04N 47°17' W 002°01'0 0.0
2017-Feb-25 22:07N 47°17' W 002°01'0 0.0
2017-Feb-25 21:31N 47°17' W 002°01'0 0.0
2017-Feb-25 17:12N 47°17' W 002°01'4 5.8
2017-Feb-25 16:34N 47°18' W 002°07'0 0.3
2017-Feb-25 15:33N 47°18' W 002°07'4 4.1
2017-Feb-25 14:33N 47°18' W 002°01'0 0.2
2017-Feb-25 13:32N 47°17' W 002°01'0 0.0
2017-Feb-25 12:32N 47°17' W 002°01'0 0.0
2017-Feb-25 10:11N 47°17' W 002°01'2 3.7
2017-Feb-25 09:33N 47°18' W 002°04'1 1.3
2017-Feb-25 08:29N 47°18' W 002°06'0 0.1
2017-Feb-25 07:33N 47°18' W 002°06'0 0.1
2017-Feb-25 06:33N 47°18' W 002°06'4 0.7
2017-Feb-25 01:31N 47°17' W 002°01'0 0.0
2017-Feb-25 00:22N 47°17' W 002°01'0 0.0
2017-Feb-24 23:28N 47°17' W 002°01'0 0.0
2017-Feb-24 19:22N 47°17' W 002°01'0 0.0
2017-Feb-24 17:08N 47°17' W 002°01'3 5.0
2017-Feb-24 16:32N 47°18' W 002°05'1 0.3
2017-Feb-24 14:33N 47°18' W 002°06'4 0.9
2017-Feb-24 10:24N 47°17' W 002°01'2 1.8
2017-Feb-24 09:32N 47°18' W 002°03'2 2.0
2017-Feb-24 08:27N 47°18' W 002°06'0 0.0
2017-Feb-24 07:33N 47°18' W 002°06'0 0.0
2017-Feb-24 06:32N 47°18' W 002°06'4 2.8
2017-Feb-24 05:14N 47°17' W 002°01'0 0.0
2017-Feb-24 04:29N 47°17' W 002°01'0 0.0
2017-Feb-24 03:17N 47°17' W 002°01'0 0.0
2017-Feb-24 02:32N 47°17' W 002°01'0 0.0
2017-Feb-24 01:17N 47°17' W 002°01'0 0.0
2017-Feb-24 00:05N 47°17' W 002°01'0 0.0
2017-Feb-23 23:29N 47°17' W 002°01'0 0.0
2017-Feb-23 22:23N 47°17' W 002°01'3 0.5
2017-Feb-23 15:32N 47°18' W 002°06'0 0.1
2017-Feb-23 14:33N 47°18' W 002°06'2 1.5
2017-Feb-23 13:33N 47°18' W 002°04'2 1.5
2017-Feb-23 12:21N 47°17' W 002°01'0 0.0
2017-Feb-23 10:30N 47°17' W 002°01'0 0.0
2017-Feb-23 09:27N 47°17' W 002°01'0 0.0
2017-Feb-23 08:33N 47°17' W 002°01'3 3.2
2017-Feb-23 07:31N 47°18' W 002°06'0 0.2
2017-Feb-23 06:32N 47°18' W 002°06'3 1.1
2017-Feb-23 03:27N 47°17' W 002°01'0 0.0
2017-Feb-23 02:33N 47°17' W 002°01'0 0.0
2017-Feb-23 01:33N 47°17' W 002°01'0 0.0
2017-Feb-23 00:30N 47°17' W 002°01'0 0.0
2017-Feb-22 23:33N 47°17' W 002°01'0 0.0
2017-Feb-22 22:33N 47°17' W 002°01'0 0.0
2017-Feb-22 21:30N 47°17' W 002°01'0 0.0
2017-Feb-22 20:33N 47°17' W 002°01'0 0.0
2017-Feb-22 19:33N 47°17' W 002°01'0 0.0
2017-Feb-22 18:24N 47°17' W 002°01'0 0.0
2017-Feb-22 17:06N 47°17' W 002°01'2 4.2
2017-Feb-22 16:33N 47°18' W 002°04'1 1.0
2017-Feb-22 15:32N 47°18' W 002°06'0 0.1
2017-Feb-22 14:31N 47°18' W 002°06'0 0.1
2017-Feb-22 13:33N 47°18' W 002°06'3 3.2
2017-Feb-22 12:33N 47°17' W 002°01'0 0.2
2017-Feb-22 11:28N 47°17' W 002°01'0 0.0
2017-Feb-22 10:31N 47°17' W 002°01'0 0.0
2017-Feb-22 09:16N 47°17' W 002°01'0 0.0
2017-Feb-22 08:04N 47°17' W 002°01'0 0.0
2017-Feb-22 07:28N 47°17' W 002°01'0 0.0
2017-Feb-22 06:16N 47°17' W 002°01'0 0.0
2017-Feb-22 05:22N 47°17' W 002°01'0 0.0
2017-Feb-22 04:10N 47°17' W 002°01'0 0.0
2017-Feb-22 03:04N 47°17' W 002°01'0 0.0
2017-Feb-22 02:31N 47°17' W 002°01'0 0.0
2017-Feb-22 01:28N 47°17' W 002°01'0 0.0
2017-Feb-22 00:31N 47°17' W 002°01'0 0.0
2017-Feb-21 23:31N 47°17' W 002°01'0 0.0
2017-Feb-21 22:16N 47°17' W 002°01'0 0.0
2017-Feb-21 21:28N 47°17' W 002°01'0 0.0
2017-Feb-21 20:31N 47°17' W 002°01'0 0.0
2017-Feb-21 19:28N 47°17' W 002°01'0 0.0
2017-Feb-21 18:25N 47°17' W 002°01'0 0.0
2017-Feb-21 17:16N 47°17' W 002°01'2 3.3
2017-Feb-21 16:33N 47°18' W 002°04'2 2.2
2017-Feb-21 15:33N 47°18' W 002°08'0 0.1
2017-Feb-21 14:31N 47°18' W 002°08'0 0.0
2017-Feb-21 13:31N 47°18' W 002°08'0 0.1
2017-Feb-21 12:31N 47°18' W 002°08'4 4.0
2017-Feb-21 11:33N 47°18' W 002°02'1 0.8
2017-Feb-21 10:26N 47°17' W 002°01'0 0.0
2017-Feb-21 09:32N 47°17' W 002°01'0 0.0
2017-Feb-21 08:26N 47°17' W 002°01'0 0.0
2017-Feb-21 07:29N 47°17' W 002°01'0 0.0
2017-Feb-21 06:32N 47°17' W 002°01'0 0.0
2017-Feb-21 05:32N 47°17' W 002°01'0 0.0
2017-Feb-21 04:32N 47°17' W 002°01'0 0.0
2017-Feb-21 03:23N 47°17' W 002°01'0 0.0
2017-Feb-21 02:26N 47°17' W 002°01'0 0.0
2017-Feb-21 01:32N 47°17' W 002°01'0 0.0
2017-Feb-21 00:32N 47°17' W 002°01'0 0.0
2017-Feb-20 23:32N 47°17' W 002°01'0 0.0
2017-Feb-20 22:32N 47°17' W 002°01'0 0.0
2017-Feb-20 21:26N 47°17' W 002°01'0 0.0
2017-Feb-20 20:23N 47°17' W 002°01'0 0.0
2017-Feb-20 19:32N 47°17' W 002°01'0 0.0
2017-Feb-20 18:32N 47°17' W 002°01'0 0.0
2017-Feb-20 17:32N 47°17' W 002°01'0 0.0
2017-Feb-20 16:26N 47°17' W 002°01'7 8.2
2017-Feb-20 15:33N 47°15' W 001°51'9 9.4
2017-Feb-20 14:33N 47°12' W 001°38'3 2.8
2017-Feb-20 13:31N 47°12' W 001°34'0 0.1
2017-Feb-20 12:30N 47°12' W 001°34'0 0.0
2017-Feb-20 11:33N 47°12' W 001°34'3 2.5
2017-Feb-20 10:33N 47°12' W 001°38'6 6.1
2017-Feb-20 09:33N 47°13' W 001°47'8 8.1
2017-Feb-20 08:33N 47°17' W 001°57'3 3.0
2017-Feb-20 07:32N 47°17' W 002°01'0 0.0
2017-Feb-20 06:32N 47°17' W 002°01'0 0.0
2017-Feb-20 05:32N 47°17' W 002°01'0 0.0
2017-Feb-20 04:29N 47°17' W 002°01'0 0.0
2017-Feb-20 03:32N 47°17' W 002°01'0 0.0
2017-Feb-20 02:32N 47°17' W 002°01'0 0.0
2017-Feb-20 01:26N 47°17' W 002°01'0 0.0
2017-Feb-20 00:32N 47°17' W 002°01'0 0.0
2017-Feb-19 23:32N 47°17' W 002°01'0 0.0
2017-Feb-19 22:29N 47°17' W 002°01'0 0.0
2017-Feb-19 21:32N 47°17' W 002°01'0 0.0
2017-Feb-19 20:32N 47°17' W 002°01'0 0.0
2017-Feb-19 19:32N 47°17' W 002°01'0 0.0
2017-Feb-19 18:32N 47°17' W 002°01'0 0.0
2017-Feb-19 17:32N 47°17' W 002°01'0 0.0
2017-Feb-19 16:29N 47°17' W 002°01'0 0.3
2017-Feb-19 15:25N 47°18' W 002°01'0 0.3
2017-Feb-19 14:19N 47°18' W 002°02'0 0.3
2017-Feb-19 13:33N 47°18' W 002°01'4 3.6
2017-Feb-19 12:33N 47°18' W 002°07'4 1.8
2017-Feb-19 10:19N 47°17' W 002°12'0 0.0
2017-Feb-19 08:31N 47°16' W 002°12'6 6.2
2017-Feb-19 07:33N 47°18' W 002°03'2 1.7
2017-Feb-19 06:32N 47°17' W 002°01'0 0.0
2017-Feb-19 05:29N 47°17' W 002°01'0 0.0
2017-Feb-19 04:23N 47°17' W 002°01'0 0.0
2017-Feb-19 03:29N 47°17' W 002°01'0 0.0
2017-Feb-19 02:32N 47°17' W 002°01'0 0.0
2017-Feb-19 01:32N 47°17' W 002°01'0 0.0
2017-Feb-19 00:32N 47°17' W 002°01'0 0.0
2017-Feb-18 23:23N 47°17' W 002°01'0 0.0
2017-Feb-18 22:32N 47°17' W 002°01'0 0.0
2017-Feb-18 21:32N 47°17' W 002°01'0 0.0
2017-Feb-18 20:17N 47°17' W 002°01'0 0.0
2017-Feb-18 19:29N 47°17' W 002°01'0 0.0
2017-Feb-18 18:26N 47°17' W 002°01'0 0.0
2017-Feb-18 16:26N 47°17' W 002°01'6 6.9
2017-Feb-18 15:33N 47°17' W 002°10'2 1.8
2017-Feb-18 14:33N 47°16' W 002°12'0 0.1
2017-Feb-18 13:27N 47°16' W 002°12'0 0.1
2017-Feb-18 12:33N 47°16' W 002°12'0 0.0
2017-Feb-18 11:31N 47°16' W 002°12'0 0.1
2017-Feb-18 10:31N 47°16' W 002°12'0 0.0
2017-Feb-18 09:32N 47°16' W 002°12'3 3.2
2017-Feb-18 08:33N 47°18' W 002°08'2 1.9
2017-Feb-18 07:29N 47°18' W 002°05'3 3.2
2017-Feb-18 06:31N 47°17' W 002°01'0 0.0
2017-Feb-18 04:25N 47°17' W 002°01'0 0.0
2017-Feb-18 03:07N 47°17' W 002°01'0 0.0
2017-Feb-18 02:25N 47°17' W 002°01'0 0.0
2017-Feb-18 01:19N 47°17' W 002°01'0 0.0
2017-Feb-18 00:19N 47°17' W 002°01'0 0.0
2017-Feb-17 17:31N 47°17' W 002°01'1 0.7
2017-Feb-17 15:33N 47°18' W 002°03'7 6.1
2017-Feb-17 14:29N 47°16' W 002°12'0 0.0
2017-Feb-17 13:31N 47°16' W 002°12'0 0.2
2017-Feb-17 12:33N 47°16' W 002°12'0 0.1
2017-Feb-17 11:31N 47°16' W 002°12'0 0.1
2017-Feb-17 10:33N 47°16' W 002°12'0 0.1
2017-Feb-17 09:33N 47°16' W 002°12'0 0.1
2017-Feb-17 08:33N 47°16' W 002°12'0 0.0
2017-Feb-17 07:27N 47°16' W 002°12'5 5.3
2017-Feb-17 06:34N 47°18' W 002°06'3 2.9
2017-Feb-17 05:25N 47°17' W 002°01'0 0.0
2017-Feb-17 04:31N 47°17' W 002°01'0 0.0
2017-Feb-17 03:28N 47°17' W 002°01'0 0.0
2017-Feb-17 02:28N 47°17' W 002°01'0 0.0
2017-Feb-17 01:19N 47°17' W 002°01'0 0.0
2017-Feb-17 00:28N 47°17' W 002°01'0 0.0
2017-Feb-16 23:31N 47°17' W 002°01'0 0.0
2017-Feb-16 22:31N 47°17' W 002°01'0 0.0
2017-Feb-16 21:31N 47°17' W 002°01'0 0.0
2017-Feb-16 20:31N 47°17' W 002°01'0 0.0
2017-Feb-16 19:25N 47°17' W 002°01'0 0.0
2017-Feb-16 18:28N 47°17' W 002°01'0 0.0
2017-Feb-16 17:25N 47°17' W 002°01'0 0.0
2017-Feb-16 15:07N 47°17' W 002°01'0 0.4
2017-Feb-16 14:33N 47°17' W 002°01'3 2.3
2017-Feb-16 13:15N 47°18' W 002°06'1 0.7
2017-Feb-16 12:27N 47°18' W 002°06'0 0.2
2017-Feb-16 11:29N 47°18' W 002°07'0 0.0
2017-Feb-16 10:24N 47°18' W 002°07'0 0.0
2017-Feb-16 09:33N 47°18' W 002°07'0 0.1
2017-Feb-16 08:30N 47°18' W 002°07'0 0.2
2017-Feb-16 07:32N 47°18' W 002°07'0 0.4
2017-Feb-16 06:33N 47°18' W 002°06'3 3.4
2017-Feb-16 05:32N 47°17' W 002°01'0 0.0
2017-Feb-16 04:26N 47°17' W 002°01'0 0.0
2017-Feb-16 03:32N 47°17' W 002°01'0 0.0
2017-Feb-16 02:20N 47°17' W 002°01'0 0.0
2017-Feb-16 01:32N 47°17' W 002°01'  

Dump ship's entire track history